sensor_id;sensor_type;location;lat;lon;timestamp;P1;durP1;ratioP1;P2;durP2;ratioP2
63714;SDS011;49858;48.956;9.076;2022-07-18T00:01:53;3.65;;;2.10;;
63714;SDS011;49858;48.956;9.076;2022-07-18T00:04:20;3.80;;;1.63;;
63714;SDS011;49858;48.956;9.076;2022-07-18T00:06:47;3.15;;;1.90;;
63714;SDS011;49858;48.956;9.076;2022-07-18T00:09:14;5.65;;;2.25;;
63714;SDS011;49858;48.956;9.076;2022-07-18T00:11:41;2.95;;;1.90;;
63714;SDS011;49858;48.956;9.076;2022-07-18T00:14:09;2.83;;;1.95;;
63714;SDS011;49858;48.956;9.076;2022-07-18T00:16:36;5.85;;;2.17;;
63714;SDS011;49858;48.956;9.076;2022-07-18T00:19:04;2.92;;;2.47;;
63714;SDS011;49858;48.956;9.076;2022-07-18T00:21:32;5.60;;;2.22;;
63714;SDS011;49858;48.956;9.076;2022-07-18T00:23:59;3.55;;;2.05;;
63714;SDS011;49858;48.956;9.076;2022-07-18T00:26:25;3.47;;;1.95;;
63714;SDS011;49858;48.956;9.076;2022-07-18T00:28:52;8.60;;;2.00;;
63714;SDS011;49858;48.956;9.076;2022-07-18T00:31:19;4.32;;;1.98;;
63714;SDS011;49858;48.956;9.076;2022-07-18T00:33:46;3.90;;;1.88;;
63714;SDS011;49858;48.956;9.076;2022-07-18T00:36:14;3.10;;;2.30;;
63714;SDS011;49858;48.956;9.076;2022-07-18T00:38:41;4.03;;;2.08;;
63714;SDS011;49858;48.956;9.076;2022-07-18T00:41:07;5.30;;;2.40;;
63714;SDS011;49858;48.956;9.076;2022-07-18T00:43:34;6.10;;;2.17;;
63714;SDS011;49858;48.956;9.076;2022-07-18T00:46:01;3.90;;;2.10;;
63714;SDS011;49858;48.956;9.076;2022-07-18T00:48:27;8.82;;;2.00;;
63714;SDS011;49858;48.956;9.076;2022-07-18T00:50:54;3.75;;;2.08;;
63714;SDS011;49858;48.956;9.076;2022-07-18T00:53:22;2.55;;;2.00;;
63714;SDS011;49858;48.956;9.076;2022-07-18T00:55:49;5.93;;;2.83;;
63714;SDS011;49858;48.956;9.076;2022-07-18T00:58:16;4.45;;;2.20;;
63714;SDS011;49858;48.956;9.076;2022-07-18T01:00:42;3.53;;;1.90;;
63714;SDS011;49858;48.956;9.076;2022-07-18T01:03:26;4.35;;;2.30;;
63714;SDS011;49858;48.956;9.076;2022-07-18T01:05:54;6.18;;;2.22;;
63714;SDS011;49858;48.956;9.076;2022-07-18T01:08:22;3.33;;;2.15;;
63714;SDS011;49858;48.956;9.076;2022-07-18T01:10:48;3.85;;;2.00;;
63714;SDS011;49858;48.956;9.076;2022-07-18T01:13:16;5.75;;;2.40;;
63714;SDS011;49858;48.956;9.076;2022-07-18T01:15:43;3.45;;;2.60;;
63714;SDS011;49858;48.956;9.076;2022-07-18T01:18:10;4.85;;;2.10;;
63714;SDS011;49858;48.956;9.076;2022-07-18T01:20:38;2.55;;;1.92;;
63714;SDS011;49858;48.956;9.076;2022-07-18T01:23:05;5.57;;;2.00;;
63714;SDS011;49858;48.956;9.076;2022-07-18T01:25:32;4.72;;;2.00;;
63714;SDS011;49858;48.956;9.076;2022-07-18T01:27:59;2.95;;;1.80;;
63714;SDS011;49858;48.956;9.076;2022-07-18T01:30:26;5.55;;;2.03;;
63714;SDS011;49858;48.956;9.076;2022-07-18T01:33:02;4.30;;;1.88;;
63714;SDS011;49858;48.956;9.076;2022-07-18T01:35:30;5.10;;;2.13;;
63714;SDS011;49858;48.956;9.076;2022-07-18T01:37:58;4.75;;;2.20;;
63714;SDS011;49858;48.956;9.076;2022-07-18T01:40:26;4.45;;;2.00;;
63714;SDS011;49858;48.956;9.076;2022-07-18T01:42:53;3.85;;;2.25;;
63714;SDS011;49858;48.956;9.076;2022-07-18T01:45:20;2.75;;;1.90;;
63714;SDS011;49858;48.956;9.076;2022-07-18T01:47:48;4.55;;;2.33;;
63714;SDS011;49858;48.956;9.076;2022-07-18T01:50:22;2.65;;;1.70;;
63714;SDS011;49858;48.956;9.076;2022-07-18T01:52:48;3.88;;;2.08;;
63714;SDS011;49858;48.956;9.076;2022-07-18T01:55:16;2.63;;;1.92;;
63714;SDS011;49858;48.956;9.076;2022-07-18T01:57:43;5.07;;;2.22;;
63714;SDS011;49858;48.956;9.076;2022-07-18T02:00:10;2.67;;;1.80;;
63714;SDS011;49858;48.956;9.076;2022-07-18T02:02:38;3.42;;;1.55;;
63714;SDS011;49858;48.956;9.076;2022-07-18T02:05:05;2.38;;;1.70;;
63714;SDS011;49858;48.956;9.076;2022-07-18T02:07:33;1.85;;;1.50;;
63714;SDS011;49858;48.956;9.076;2022-07-18T02:10:02;3.17;;;1.80;;
63714;SDS011;49858;48.956;9.076;2022-07-18T02:12:32;3.58;;;1.80;;
63714;SDS011;49858;48.956;9.076;2022-07-18T02:14:59;3.83;;;1.90;;
63714;SDS011;49858;48.956;9.076;2022-07-18T02:17:26;3.63;;;1.95;;
63714;SDS011;49858;48.956;9.076;2022-07-18T02:19:52;3.15;;;1.80;;
63714;SDS011;49858;48.956;9.076;2022-07-18T02:22:19;4.35;;;1.73;;
63714;SDS011;49858;48.956;9.076;2022-07-18T02:24:46;5.30;;;2.10;;
63714;SDS011;49858;48.956;9.076;2022-07-18T02:27:13;2.60;;;2.00;;
63714;SDS011;49858;48.956;9.076;2022-07-18T02:29:40;7.20;;;2.38;;
63714;SDS011;49858;48.956;9.076;2022-07-18T02:32:08;8.30;;;2.63;;
63714;SDS011;49858;48.956;9.076;2022-07-18T02:34:35;6.75;;;2.90;;
63714;SDS011;49858;48.956;9.076;2022-07-18T02:37:02;4.50;;;2.70;;
63714;SDS011;49858;48.956;9.076;2022-07-18T02:39:30;4.88;;;2.60;;
63714;SDS011;49858;48.956;9.076;2022-07-18T02:41:57;5.53;;;2.60;;
63714;SDS011;49858;48.956;9.076;2022-07-18T02:44:24;4.00;;;2.50;;
63714;SDS011;49858;48.956;9.076;2022-07-18T02:46:52;5.15;;;2.10;;
63714;SDS011;49858;48.956;9.076;2022-07-18T02:49:18;4.00;;;2.13;;
63714;SDS011;49858;48.956;9.076;2022-07-18T02:51:55;3.83;;;2.33;;
63714;SDS011;49858;48.956;9.076;2022-07-18T02:54:26;6.57;;;2.28;;
63714;SDS011;49858;48.956;9.076;2022-07-18T02:56:53;3.67;;;2.38;;
63714;SDS011;49858;48.956;9.076;2022-07-18T02:59:20;3.95;;;2.50;;
63714;SDS011;49858;48.956;9.076;2022-07-18T03:01:47;4.07;;;2.30;;
63714;SDS011;49858;48.956;9.076;2022-07-18T03:04:16;4.10;;;2.50;;
63714;SDS011;49858;48.956;9.076;2022-07-18T03:06:43;7.40;;;2.70;;
63714;SDS011;49858;48.956;9.076;2022-07-18T03:09:10;8.75;;;2.45;;
63714;SDS011;49858;48.956;9.076;2022-07-18T03:11:40;4.05;;;2.65;;
63714;SDS011;49858;48.956;9.076;2022-07-18T03:14:06;6.75;;;2.78;;
63714;SDS011;49858;48.956;9.076;2022-07-18T03:16:33;6.97;;;2.72;;
63714;SDS011;49858;48.956;9.076;2022-07-18T03:19:01;7.32;;;3.60;;
63714;SDS011;49858;48.956;9.076;2022-07-18T03:21:30;4.13;;;2.60;;
63714;SDS011;49858;48.956;9.076;2022-07-18T03:23:56;4.53;;;2.65;;
63714;SDS011;49858;48.956;9.076;2022-07-18T03:26:23;6.60;;;2.50;;
63714;SDS011;49858;48.956;9.076;2022-07-18T03:28:50;5.28;;;2.47;;
63714;SDS011;49858;48.956;9.076;2022-07-18T03:31:16;4.13;;;2.47;;
63714;SDS011;49858;48.956;9.076;2022-07-18T03:33:43;5.20;;;3.03;;
63714;SDS011;49858;48.956;9.076;2022-07-18T03:36:10;11.45;;;5.13;;
63714;SDS011;49858;48.956;9.076;2022-07-18T03:38:38;4.72;;;3.40;;
63714;SDS011;49858;48.956;9.076;2022-07-18T03:41:08;5.50;;;3.05;;
63714;SDS011;49858;48.956;9.076;2022-07-18T03:43:36;7.47;;;3.75;;
63714;SDS011;49858;48.956;9.076;2022-07-18T03:46:03;4.95;;;2.92;;
63714;SDS011;49858;48.956;9.076;2022-07-18T03:48:30;4.15;;;2.55;;
63714;SDS011;49858;48.956;9.076;2022-07-18T03:50:57;4.70;;;2.47;;
63714;SDS011;49858;48.956;9.076;2022-07-18T03:53:24;7.30;;;2.22;;
63714;SDS011;49858;48.956;9.076;2022-07-18T03:55:52;4.40;;;2.50;;
63714;SDS011;49858;48.956;9.076;2022-07-18T03:58:19;4.70;;;2.47;;
63714;SDS011;49858;48.956;9.076;2022-07-18T04:00:46;5.45;;;2.53;;
63714;SDS011;49858;48.956;9.076;2022-07-18T04:03:13;6.90;;;3.22;;
63714;SDS011;49858;48.956;9.076;2022-07-18T04:05:40;6.47;;;3.10;;
63714;SDS011;49858;48.956;9.076;2022-07-18T04:08:06;4.47;;;2.92;;
63714;SDS011;49858;48.956;9.076;2022-07-18T04:10:33;5.53;;;2.83;;
63714;SDS011;49858;48.956;9.076;2022-07-18T04:13:01;7.07;;;3.08;;
63714;SDS011;49858;48.956;9.076;2022-07-18T04:15:29;4.53;;;2.70;;
63714;SDS011;49858;48.956;9.076;2022-07-18T04:17:56;6.97;;;3.22;;
63714;SDS011;49858;48.956;9.076;2022-07-18T04:20:23;5.45;;;2.90;;
63714;SDS011;49858;48.956;9.076;2022-07-18T04:22:51;4.88;;;2.50;;
63714;SDS011;49858;48.956;9.076;2022-07-18T04:25:20;4.10;;;2.80;;
63714;SDS011;49858;48.956;9.076;2022-07-18T04:27:49;4.53;;;2.67;;
63714;SDS011;49858;48.956;9.076;2022-07-18T04:30:19;9.98;;;2.90;;
63714;SDS011;49858;48.956;9.076;2022-07-18T04:32:48;6.38;;;2.97;;
63714;SDS011;49858;48.956;9.076;2022-07-18T04:35:15;7.72;;;2.95;;
63714;SDS011;49858;48.956;9.076;2022-07-18T04:37:42;6.47;;;3.40;;
63714;SDS011;49858;48.956;9.076;2022-07-18T04:40:09;8.55;;;3.10;;
63714;SDS011;49858;48.956;9.076;2022-07-18T04:42:37;4.38;;;3.05;;
63714;SDS011;49858;48.956;9.076;2022-07-18T04:45:04;4.80;;;2.85;;
63714;SDS011;49858;48.956;9.076;2022-07-18T04:47:34;4.78;;;3.00;;
63714;SDS011;49858;48.956;9.076;2022-07-18T04:50:01;8.68;;;3.17;;
63714;SDS011;49858;48.956;9.076;2022-07-18T04:52:34;5.78;;;2.63;;
63714;SDS011;49858;48.956;9.076;2022-07-18T04:55:04;3.90;;;2.83;;
63714;SDS011;49858;48.956;9.076;2022-07-18T04:57:33;6.28;;;2.90;;
63714;SDS011;49858;48.956;9.076;2022-07-18T05:00:01;7.97;;;2.45;;
63714;SDS011;49858;48.956;9.076;2022-07-18T05:02:28;5.95;;;2.80;;
63714;SDS011;49858;48.956;9.076;2022-07-18T05:04:56;9.13;;;3.47;;
63714;SDS011;49858;48.956;9.076;2022-07-18T05:07:23;3.92;;;2.88;;
63714;SDS011;49858;48.956;9.076;2022-07-18T05:09:50;8.93;;;3.25;;
63714;SDS011;49858;48.956;9.076;2022-07-18T05:12:17;4.70;;;3.05;;
63714;SDS011;49858;48.956;9.076;2022-07-18T05:14:48;5.15;;;2.42;;
63714;SDS011;49858;48.956;9.076;2022-07-18T05:17:15;5.05;;;2.85;;
63714;SDS011;49858;48.956;9.076;2022-07-18T05:19:42;4.65;;;2.97;;
63714;SDS011;49858;48.956;9.076;2022-07-18T05:22:10;9.07;;;2.97;;
63714;SDS011;49858;48.956;9.076;2022-07-18T05:24:44;8.75;;;2.95;;
63714;SDS011;49858;48.956;9.076;2022-07-18T05:27:10;4.07;;;2.58;;
63714;SDS011;49858;48.956;9.076;2022-07-18T05:29:37;3.40;;;2.85;;
63714;SDS011;49858;48.956;9.076;2022-07-18T05:32:04;5.60;;;3.45;;
63714;SDS011;49858;48.956;9.076;2022-07-18T05:34:32;9.57;;;4.55;;
63714;SDS011;49858;48.956;9.076;2022-07-18T05:36:59;7.00;;;4.47;;
63714;SDS011;49858;48.956;9.076;2022-07-18T05:39:27;9.02;;;3.35;;
63714;SDS011;49858;48.956;9.076;2022-07-18T05:41:54;5.55;;;3.80;;
63714;SDS011;49858;48.956;9.076;2022-07-18T05:44:20;8.00;;;3.70;;
63714;SDS011;49858;48.956;9.076;2022-07-18T05:46:47;7.65;;;3.55;;
63714;SDS011;49858;48.956;9.076;2022-07-18T05:49:14;5.30;;;3.60;;
63714;SDS011;49858;48.956;9.076;2022-07-18T05:51:41;7.55;;;3.72;;
63714;SDS011;49858;48.956;9.076;2022-07-18T05:54:08;5.70;;;3.83;;
63714;SDS011;49858;48.956;9.076;2022-07-18T05:56:36;7.05;;;3.70;;
63714;SDS011;49858;48.956;9.076;2022-07-18T05:59:03;7.28;;;3.50;;
63714;SDS011;49858;48.956;9.076;2022-07-18T06:01:30;6.55;;;4.10;;
63714;SDS011;49858;48.956;9.076;2022-07-18T06:03:57;4.90;;;3.45;;
63714;SDS011;49858;48.956;9.076;2022-07-18T06:06:24;7.57;;;3.80;;
63714;SDS011;49858;48.956;9.076;2022-07-18T06:08:51;6.53;;;3.35;;
63714;SDS011;49858;48.956;9.076;2022-07-18T06:11:17;5.88;;;3.58;;
63714;SDS011;49858;48.956;9.076;2022-07-18T06:13:45;5.78;;;3.90;;
63714;SDS011;49858;48.956;9.076;2022-07-18T06:16:12;6.35;;;3.60;;
63714;SDS011;49858;48.956;9.076;2022-07-18T06:18:39;6.47;;;3.10;;
63714;SDS011;49858;48.956;9.076;2022-07-18T06:21:07;4.10;;;3.47;;
63714;SDS011;49858;48.956;9.076;2022-07-18T06:23:35;6.45;;;3.85;;
63714;SDS011;49858;48.956;9.076;2022-07-18T06:26:02;8.00;;;3.60;;
63714;SDS011;49858;48.956;9.076;2022-07-18T06:28:29;8.85;;;4.32;;
63714;SDS011;49858;48.956;9.076;2022-07-18T06:30:57;6.78;;;3.53;;
63714;SDS011;49858;48.956;9.076;2022-07-18T06:33:24;5.85;;;3.83;;
63714;SDS011;49858;48.956;9.076;2022-07-18T06:35:50;4.35;;;3.38;;
63714;SDS011;49858;48.956;9.076;2022-07-18T06:38:17;3.75;;;2.92;;
63714;SDS011;49858;48.956;9.076;2022-07-18T06:40:44;7.13;;;3.47;;
63714;SDS011;49858;48.956;9.076;2022-07-18T06:43:10;5.25;;;3.03;;
63714;SDS011;49858;48.956;9.076;2022-07-18T06:45:39;6.68;;;3.63;;
63714;SDS011;49858;48.956;9.076;2022-07-18T06:48:07;5.88;;;3.47;;
63714;SDS011;49858;48.956;9.076;2022-07-18T06:50:35;6.95;;;3.17;;
63714;SDS011;49858;48.956;9.076;2022-07-18T06:53:01;6.10;;;3.30;;
63714;SDS011;49858;48.956;9.076;2022-07-18T06:55:28;7.35;;;3.67;;
63714;SDS011;49858;48.956;9.076;2022-07-18T06:57:55;6.15;;;3.47;;
63714;SDS011;49858;48.956;9.076;2022-07-18T07:00:21;8.20;;;3.00;;
63714;SDS011;49858;48.956;9.076;2022-07-18T07:02:48;8.07;;;3.03;;
63714;SDS011;49858;48.956;9.076;2022-07-18T07:05:19;7.68;;;3.13;;
63714;SDS011;49858;48.956;9.076;2022-07-18T07:07:46;5.00;;;3.03;;
63714;SDS011;49858;48.956;9.076;2022-07-18T07:10:13;4.78;;;3.08;;
63714;SDS011;49858;48.956;9.076;2022-07-18T07:12:41;3.80;;;3.10;;
63714;SDS011;49858;48.956;9.076;2022-07-18T07:15:09;4.15;;;2.90;;
63714;SDS011;49858;48.956;9.076;2022-07-18T07:17:36;5.55;;;3.20;;
63714;SDS011;49858;48.956;9.076;2022-07-18T07:20:04;6.15;;;2.67;;
63714;SDS011;49858;48.956;9.076;2022-07-18T07:22:33;7.57;;;3.15;;
63714;SDS011;49858;48.956;9.076;2022-07-18T07:25:08;10.65;;;3.20;;
63714;SDS011;49858;48.956;9.076;2022-07-18T07:27:35;6.15;;;3.08;;
63714;SDS011;49858;48.956;9.076;2022-07-18T07:30:02;5.40;;;3.00;;
63714;SDS011;49858;48.956;9.076;2022-07-18T07:32:32;5.32;;;3.00;;
63714;SDS011;49858;48.956;9.076;2022-07-18T07:35:00;9.63;;;2.90;;
63714;SDS011;49858;48.956;9.076;2022-07-18T07:37:26;7.35;;;3.20;;
63714;SDS011;49858;48.956;9.076;2022-07-18T07:39:55;6.35;;;3.05;;
63714;SDS011;49858;48.956;9.076;2022-07-18T07:42:21;5.93;;;2.70;;
63714;SDS011;49858;48.956;9.076;2022-07-18T07:44:48;4.20;;;2.53;;
63714;SDS011;49858;48.956;9.076;2022-07-18T07:47:15;3.63;;;2.30;;
63714;SDS011;49858;48.956;9.076;2022-07-18T07:49:41;6.30;;;2.75;;
63714;SDS011;49858;48.956;9.076;2022-07-18T07:52:08;4.88;;;2.55;;
63714;SDS011;49858;48.956;9.076;2022-07-18T07:54:36;6.38;;;2.63;;
63714;SDS011;49858;48.956;9.076;2022-07-18T07:57:05;6.18;;;2.38;;
63714;SDS011;49858;48.956;9.076;2022-07-18T07:59:32;4.60;;;2.67;;
63714;SDS011;49858;48.956;9.076;2022-07-18T08:01:58;3.55;;;2.17;;
63714;SDS011;49858;48.956;9.076;2022-07-18T08:04:25;4.93;;;2.40;;
63714;SDS011;49858;48.956;9.076;2022-07-18T08:06:52;2.80;;;2.35;;
63714;SDS011;49858;48.956;9.076;2022-07-18T08:09:19;5.05;;;2.40;;
63714;SDS011;49858;48.956;9.076;2022-07-18T08:11:46;3.33;;;2.35;;
63714;SDS011;49858;48.956;9.076;2022-07-18T08:14:14;5.05;;;2.20;;
63714;SDS011;49858;48.956;9.076;2022-07-18T08:16:41;3.75;;;2.10;;
63714;SDS011;49858;48.956;9.076;2022-07-18T08:19:08;3.55;;;2.20;;
63714;SDS011;49858;48.956;9.076;2022-07-18T08:21:34;6.88;;;2.17;;
63714;SDS011;49858;48.956;9.076;2022-07-18T08:24:01;9.57;;;2.10;;
63714;SDS011;49858;48.956;9.076;2022-07-18T08:26:30;2.80;;;2.00;;
63714;SDS011;49858;48.956;9.076;2022-07-18T08:29:00;5.20;;;2.03;;
63714;SDS011;49858;48.956;9.076;2022-07-18T08:31:29;3.97;;;2.00;;
63714;SDS011;49858;48.956;9.076;2022-07-18T08:33:56;5.53;;;2.03;;
63714;SDS011;49858;48.956;9.076;2022-07-18T08:36:23;3.58;;;1.92;;
63714;SDS011;49858;48.956;9.076;2022-07-18T08:38:50;8.85;;;2.38;;
63714;SDS011;49858;48.956;9.076;2022-07-18T08:41:17;5.32;;;2.00;;
63714;SDS011;49858;48.956;9.076;2022-07-18T08:43:44;3.28;;;2.40;;
63714;SDS011;49858;48.956;9.076;2022-07-18T08:46:11;7.07;;;1.92;;
63714;SDS011;49858;48.956;9.076;2022-07-18T08:48:40;4.13;;;2.20;;
63714;SDS011;49858;48.956;9.076;2022-07-18T08:51:08;3.55;;;2.05;;
63714;SDS011;49858;48.956;9.076;2022-07-18T08:53:35;4.63;;;1.65;;
63714;SDS011;49858;48.956;9.076;2022-07-18T08:56:03;4.43;;;2.25;;
63714;SDS011;49858;48.956;9.076;2022-07-18T08:58:30;5.60;;;1.95;;
63714;SDS011;49858;48.956;9.076;2022-07-18T09:00:56;2.95;;;1.98;;
63714;SDS011;49858;48.956;9.076;2022-07-18T09:03:24;4.95;;;1.92;;
63714;SDS011;49858;48.956;9.076;2022-07-18T09:06:03;3.97;;;1.88;;
63714;SDS011;49858;48.956;9.076;2022-07-18T09:08:31;3.33;;;1.77;;
63714;SDS011;49858;48.956;9.076;2022-07-18T09:10:58;2.88;;;1.80;;
63714;SDS011;49858;48.956;9.076;2022-07-18T09:13:30;1.88;;;1.50;;
63714;SDS011;49858;48.956;9.076;2022-07-18T09:16:05;3.78;;;1.60;;
63714;SDS011;49858;48.956;9.076;2022-07-18T09:18:35;2.55;;;1.60;;
63714;SDS011;49858;48.956;9.076;2022-07-18T09:21:05;2.83;;;1.50;;
63714;SDS011;49858;48.956;9.076;2022-07-18T09:23:33;3.28;;;1.92;;
63714;SDS011;49858;48.956;9.076;2022-07-18T09:26:02;5.28;;;1.35;;
63714;SDS011;49858;48.956;9.076;2022-07-18T09:28:30;1.98;;;1.27;;
63714;SDS011;49858;48.956;9.076;2022-07-18T09:31:16;2.00;;;1.52;;
63714;SDS011;49858;48.956;9.076;2022-07-18T09:33:50;3.50;;;1.80;;
63714;SDS011;49858;48.956;9.076;2022-07-18T09:36:20;3.45;;;1.40;;
63714;SDS011;49858;48.956;9.076;2022-07-18T09:38:46;4.50;;;1.27;;
63714;SDS011;49858;48.956;9.076;2022-07-18T09:41:14;3.42;;;1.92;;
63714;SDS011;49858;48.956;9.076;2022-07-18T09:43:41;2.80;;;1.83;;
63714;SDS011;49858;48.956;9.076;2022-07-18T09:46:08;1.65;;;1.30;;
63714;SDS011;49858;48.956;9.076;2022-07-18T09:48:35;2.13;;;1.23;;
63714;SDS011;49858;48.956;9.076;2022-07-18T09:51:03;5.57;;;1.60;;
63714;SDS011;49858;48.956;9.076;2022-07-18T09:53:33;1.95;;;1.10;;
63714;SDS011;49858;48.956;9.076;2022-07-18T09:56:02;2.40;;;1.35;;
63714;SDS011;49858;48.956;9.076;2022-07-18T09:58:31;1.88;;;1.30;;
63714;SDS011;49858;48.956;9.076;2022-07-18T10:01:00;3.05;;;1.20;;
63714;SDS011;49858;48.956;9.076;2022-07-18T10:03:28;1.70;;;1.20;;
63714;SDS011;49858;48.956;9.076;2022-07-18T10:05:56;1.90;;;1.20;;
63714;SDS011;49858;48.956;9.076;2022-07-18T10:08:24;1.42;;;1.20;;
63714;SDS011;49858;48.956;9.076;2022-07-18T10:10:54;4.50;;;1.70;;
63714;SDS011;49858;48.956;9.076;2022-07-18T10:13:24;4.72;;;1.85;;
63714;SDS011;49858;48.956;9.076;2022-07-18T10:15:52;2.40;;;1.38;;
63714;SDS011;49858;48.956;9.076;2022-07-18T10:18:19;2.22;;;1.50;;
63714;SDS011;49858;48.956;9.076;2022-07-18T10:20:48;2.95;;;1.52;;
63714;SDS011;49858;48.956;9.076;2022-07-18T10:23:20;2.03;;;1.40;;
63714;SDS011;49858;48.956;9.076;2022-07-18T10:26:10;2.72;;;1.50;;
63714;SDS011;49858;48.956;9.076;2022-07-18T10:31:36;4.40;;;1.70;;
63714;SDS011;49858;48.956;9.076;2022-07-18T10:34:09;1.48;;;1.27;;
63714;SDS011;49858;48.956;9.076;2022-07-18T10:36:39;2.95;;;1.45;;
63714;SDS011;49858;48.956;9.076;2022-07-18T10:39:07;2.85;;;1.25;;
63714;SDS011;49858;48.956;9.076;2022-07-18T10:44:44;2.13;;;1.30;;
63714;SDS011;49858;48.956;9.076;2022-07-18T10:47:14;2.95;;;1.40;;
63714;SDS011;49858;48.956;9.076;2022-07-18T10:50:02;1.70;;;1.30;;
63714;SDS011;49858;48.956;9.076;2022-07-18T10:55:30;2.55;;;1.25;;
63714;SDS011;49858;48.956;9.076;2022-07-18T11:01:04;2.00;;;1.30;;
63714;SDS011;49858;48.956;9.076;2022-07-18T11:06:03;3.88;;;1.58;;
63714;SDS011;49858;48.956;9.076;2022-07-18T11:08:30;2.50;;;1.40;;
63714;SDS011;49858;48.956;9.076;2022-07-18T11:13:45;2.10;;;1.35;;
63714;SDS011;49858;48.956;9.076;2022-07-18T11:16:16;6.95;;;1.48;;
63714;SDS011;49858;48.956;9.076;2022-07-18T11:21:53;2.40;;;1.42;;
63714;SDS011;49858;48.956;9.076;2022-07-18T11:24:22;4.38;;;1.55;;
63714;SDS011;49858;48.956;9.076;2022-07-18T11:26:53;2.97;;;1.50;;
63714;SDS011;49858;48.956;9.076;2022-07-18T11:29:21;3.60;;;1.52;;
63714;SDS011;49858;48.956;9.076;2022-07-18T11:31:49;6.63;;;1.40;;
63714;SDS011;49858;48.956;9.076;2022-07-18T11:34:17;4.70;;;1.15;;
63714;SDS011;49858;48.956;9.076;2022-07-18T11:36:45;1.88;;;1.17;;
63714;SDS011;49858;48.956;9.076;2022-07-18T11:39:13;2.90;;;1.30;;
63714;SDS011;49858;48.956;9.076;2022-07-18T11:41:53;2.20;;;1.15;;
63714;SDS011;49858;48.956;9.076;2022-07-18T11:44:21;2.17;;;1.30;;
63714;SDS011;49858;48.956;9.076;2022-07-18T11:47:00;2.45;;;1.27;;
63714;SDS011;49858;48.956;9.076;2022-07-18T11:49:28;1.77;;;1.20;;
63714;SDS011;49858;48.956;9.076;2022-07-18T11:51:55;2.20;;;1.30;;
63714;SDS011;49858;48.956;9.076;2022-07-18T11:54:22;1.83;;;1.30;;
63714;SDS011;49858;48.956;9.076;2022-07-18T11:56:51;3.90;;;1.10;;
63714;SDS011;49858;48.956;9.076;2022-07-18T11:59:19;2.88;;;1.60;;
63714;SDS011;49858;48.956;9.076;2022-07-18T12:01:48;3.47;;;1.20;;
63714;SDS011;49858;48.956;9.076;2022-07-18T12:04:18;2.95;;;1.52;;
63714;SDS011;49858;48.956;9.076;2022-07-18T12:06:46;2.10;;;1.20;;
63714;SDS011;49858;48.956;9.076;2022-07-18T12:09:32;1.95;;;1.30;;
63714;SDS011;49858;48.956;9.076;2022-07-18T12:12:06;5.05;;;1.42;;
63714;SDS011;49858;48.956;9.076;2022-07-18T12:14:33;2.95;;;1.30;;
63714;SDS011;49858;48.956;9.076;2022-07-18T12:17:02;1.40;;;0.98;;
63714;SDS011;49858;48.956;9.076;2022-07-18T12:19:32;3.53;;;1.13;;
63714;SDS011;49858;48.956;9.076;2022-07-18T12:22:04;5.20;;;1.20;;
63714;SDS011;49858;48.956;9.076;2022-07-18T12:24:32;3.60;;;1.20;;
63714;SDS011;49858;48.956;9.076;2022-07-18T12:27:16;4.63;;;1.48;;
63714;SDS011;49858;48.956;9.076;2022-07-18T12:32:49;3.10;;;1.30;;
63714;SDS011;49858;48.956;9.076;2022-07-18T12:35:18;3.78;;;1.50;;
63714;SDS011;49858;48.956;9.076;2022-07-18T12:37:52;2.80;;;1.10;;
63714;SDS011;49858;48.956;9.076;2022-07-18T12:40:22;2.28;;;1.40;;
63714;SDS011;49858;48.956;9.076;2022-07-18T12:42:49;1.65;;;1.15;;
63714;SDS011;49858;48.956;9.076;2022-07-18T12:45:29;4.55;;;1.10;;
63714;SDS011;49858;48.956;9.076;2022-07-18T12:47:59;2.03;;;1.23;;
63714;SDS011;49858;48.956;9.076;2022-07-18T12:50:26;2.42;;;1.17;;
63714;SDS011;49858;48.956;9.076;2022-07-18T12:52:52;1.73;;;1.17;;
63714;SDS011;49858;48.956;9.076;2022-07-18T12:55:19;3.78;;;1.08;;
63714;SDS011;49858;48.956;9.076;2022-07-18T12:57:48;3.28;;;1.33;;
63714;SDS011;49858;48.956;9.076;2022-07-18T13:00:14;1.50;;;1.10;;
63714;SDS011;49858;48.956;9.076;2022-07-18T13:02:41;2.95;;;1.23;;
63714;SDS011;49858;48.956;9.076;2022-07-18T13:05:10;3.55;;;1.50;;
63714;SDS011;49858;48.956;9.076;2022-07-18T13:07:37;3.17;;;1.20;;
63714;SDS011;49858;48.956;9.076;2022-07-18T13:10:04;2.58;;;0.95;;
63714;SDS011;49858;48.956;9.076;2022-07-18T13:12:32;2.92;;;1.20;;
63714;SDS011;49858;48.956;9.076;2022-07-18T13:14:59;2.38;;;1.48;;
63714;SDS011;49858;48.956;9.076;2022-07-18T13:17:25;1.80;;;1.20;;
63714;SDS011;49858;48.956;9.076;2022-07-18T13:19:52;2.78;;;1.35;;
63714;SDS011;49858;48.956;9.076;2022-07-18T13:22:20;2.90;;;1.27;;
63714;SDS011;49858;48.956;9.076;2022-07-18T13:24:47;3.20;;;1.20;;
63714;SDS011;49858;48.956;9.076;2022-07-18T13:27:14;1.60;;;1.23;;
63714;SDS011;49858;48.956;9.076;2022-07-18T13:29:40;4.32;;;1.35;;
63714;SDS011;49858;48.956;9.076;2022-07-18T13:32:07;1.58;;;1.05;;
63714;SDS011;49858;48.956;9.076;2022-07-18T13:34:34;2.65;;;1.17;;
63714;SDS011;49858;48.956;9.076;2022-07-18T13:37:01;1.60;;;1.30;;
63714;SDS011;49858;48.956;9.076;2022-07-18T13:39:29;1.58;;;1.00;;
63714;SDS011;49858;48.956;9.076;2022-07-18T13:41:55;1.45;;;0.90;;
63714;SDS011;49858;48.956;9.076;2022-07-18T13:44:27;2.78;;;1.00;;
63714;SDS011;49858;48.956;9.076;2022-07-18T13:46:56;2.10;;;0.98;;
63714;SDS011;49858;48.956;9.076;2022-07-18T13:49:23;2.38;;;1.13;;
63714;SDS011;49858;48.956;9.076;2022-07-18T13:51:50;2.10;;;1.30;;
63714;SDS011;49858;48.956;9.076;2022-07-18T13:54:16;2.75;;;1.20;;
63714;SDS011;49858;48.956;9.076;2022-07-18T13:56:45;1.67;;;1.13;;
63714;SDS011;49858;48.956;9.076;2022-07-18T13:59:12;3.78;;;1.20;;
63714;SDS011;49858;48.956;9.076;2022-07-18T14:01:40;4.05;;;1.10;;
63714;SDS011;49858;48.956;9.076;2022-07-18T14:04:07;2.78;;;1.10;;
63714;SDS011;49858;48.956;9.076;2022-07-18T14:06:34;1.60;;;1.10;;
63714;SDS011;49858;48.956;9.076;2022-07-18T14:09:01;1.92;;;1.10;;
63714;SDS011;49858;48.956;9.076;2022-07-18T14:11:28;1.55;;;1.20;;
63714;SDS011;49858;48.956;9.076;2022-07-18T14:14:00;1.38;;;0.90;;
63714;SDS011;49858;48.956;9.076;2022-07-18T14:16:27;1.45;;;0.90;;
63714;SDS011;49858;48.956;9.076;2022-07-18T14:18:54;1.27;;;0.70;;
63714;SDS011;49858;48.956;9.076;2022-07-18T14:21:21;1.83;;;0.80;;
63714;SDS011;49858;48.956;9.076;2022-07-18T14:23:48;2.67;;;0.85;;
63714;SDS011;49858;48.956;9.076;2022-07-18T14:26:15;1.25;;;0.80;;
63714;SDS011;49858;48.956;9.076;2022-07-18T14:28:42;2.10;;;0.90;;
63714;SDS011;49858;48.956;9.076;2022-07-18T14:31:10;1.83;;;0.90;;
63714;SDS011;49858;48.956;9.076;2022-07-18T14:33:37;3.45;;;1.10;;
63714;SDS011;49858;48.956;9.076;2022-07-18T14:36:04;4.55;;;1.10;;
63714;SDS011;49858;48.956;9.076;2022-07-18T14:38:31;1.10;;;0.77;;
63714;SDS011;49858;48.956;9.076;2022-07-18T14:40:58;1.00;;;0.80;;
63714;SDS011;49858;48.956;9.076;2022-07-18T14:43:24;1.10;;;0.80;;
63714;SDS011;49858;48.956;9.076;2022-07-18T14:45:51;2.50;;;0.70;;
63714;SDS011;49858;48.956;9.076;2022-07-18T14:48:19;1.10;;;0.70;;
63714;SDS011;49858;48.956;9.076;2022-07-18T14:50:46;1.42;;;0.90;;
63714;SDS011;49858;48.956;9.076;2022-07-18T14:53:13;3.00;;;1.15;;
63714;SDS011;49858;48.956;9.076;2022-07-18T14:55:39;1.50;;;1.00;;
63714;SDS011;49858;48.956;9.076;2022-07-18T14:58:06;1.73;;;1.00;;
63714;SDS011;49858;48.956;9.076;2022-07-18T15:00:33;1.85;;;0.90;;
63714;SDS011;49858;48.956;9.076;2022-07-18T15:03:00;2.15;;;1.00;;
63714;SDS011;49858;48.956;9.076;2022-07-18T15:05:28;1.77;;;1.17;;
63714;SDS011;49858;48.956;9.076;2022-07-18T15:07:55;2.67;;;1.10;;
63714;SDS011;49858;48.956;9.076;2022-07-18T15:10:22;2.83;;;1.13;;
63714;SDS011;49858;48.956;9.076;2022-07-18T15:12:48;1.50;;;1.10;;
63714;SDS011;49858;48.956;9.076;2022-07-18T15:15:15;3.03;;;1.40;;
63714;SDS011;49858;48.956;9.076;2022-07-18T15:17:42;1.95;;;1.02;;